Time;durP1;ratioP1;P1;durP2;ratioP2;P2;SDS_P1;SDS_P2;PMS_P1;PMS_P2;Temp;Humidity;BMP_temperature;BMP_pressure;BME280_temperature;BME280_humidity;BME280_pressure;Samples;Min_cycle;Max_cycle;Signal;HPM_P1;HPM_P2
2022/08/06 00:02:27;;;;;;;3.65;2.10;;;24.00;59.20;;;22.85;47.65;99767.72;10402774;27;96519;-86
2022/08/06 00:07:35;;;;;;;4.03;2.78;;;23.90;59.30;;;22.80;47.88;99767.72;10419573;27;96823;-86
2022/08/06 00:12:50;;;;;;;4.13;2.20;;;23.80;59.40;;;22.77;48.32;99773.63;10441848;27;96563;-85
2022/08/06 00:17:53;;;;;;;2.55;2.35;;;23.90;59.90;;;22.76;48.87;99783.66;10459232;27;97932;-87
2022/08/06 00:22:58;;;;;;;4.55;2.80;;;23.90;60.20;;;22.69;49.03;99794.69;10414379;27;97035;-86
2022/08/06 00:28:03;;;;;;;3.97;2.38;;;23.80;60.40;;;22.65;49.23;99793.56;10424508;27;97700;-87
2022/08/06 00:33:12;;;;;;;;;;;23.80;60.70;;;22.59;49.78;99794.59;10420988;27;97952;-87
2022/08/06 00:38:17;;;;;;;3.80;2.72;;;23.70;61.50;;;22.49;49.36;99801.78;10430359;27;96894;-87
2022/08/06 00:43:21;;;;;;;3.08;2.53;;;23.60;60.90;;;22.42;49.83;99793.88;10428549;27;96673;-88
2022/08/06 00:48:24;;;;;;;4.13;2.92;;;23.50;61.20;;;22.35;50.20;99793.28;10414496;27;96637;-89
2022/08/06 00:53:51;;;;;;;3.92;2.80;;;23.50;61.40;;;22.24;50.17;99789.63;10422280;27;96601;-88
2022/08/06 00:58:59;;;;;;;3.92;2.65;;;23.30;61.50;;;22.20;50.07;99793.13;10407183;27;97888;-89
2022/08/06 01:04:06;;;;;;;2.75;2.40;;;23.30;61.40;;;22.18;50.00;99780.63;10404093;27;96555;-89
2022/08/06 01:09:09;;;;;;;2.85;2.40;;;23.20;61.40;;;22.15;49.84;99783.88;10438101;27;96736;-88
2022/08/06 01:14:12;;;;;;;3.80;2.30;;;23.20;61.50;;;22.14;49.97;99782.25;10430035;27;96583;-85
2022/08/06 01:20:19;;;;;;;3.47;2.72;;;23.20;61.80;;;22.10;50.39;99778.41;10407751;27;97419;-85
2022/08/06 01:26:10;;;;;;;4.82;2.33;;;23.20;61.80;;;22.00;50.60;99777.44;10396045;28;96769;-85
2022/08/06 01:31:54;;;;;;;4.15;2.30;;;23.10;62.00;;;21.89;50.86;99776.47;10431386;27;97523;-86
2022/08/06 01:37:28;;;;;;;3.60;2.13;;;23.00;62.30;;;21.82;51.41;99781.28;10416426;27;98457;-86
2022/08/06 01:42:43;;;;;;;3.35;2.47;;;22.90;62.60;;;21.72;51.41;99776.56;10431336;27;96818;-85
2022/08/06 01:48:02;;;;;;;3.90;2.90;;;22.80;62.70;;;21.62;51.35;99771.84;10417945;27;96554;-86
2022/08/06 01:53:15;;;;;;;6.18;2.83;;;22.70;63.00;;;21.56;51.66;99778.25;10401757;27;97535;-86
2022/08/06 01:58:42;;;;;;;5.93;3.50;;;22.60;63.30;;;21.49;51.91;99772.22;10412313;27;96859;-85
2022/08/06 02:03:54;;;;;;;5.00;2.80;;;22.60;63.40;;;21.42;52.38;99768.06;10427567;27;98622;-85
2022/08/06 02:09:11;;;;;;;2.50;2.20;;;22.50;63.60;;;21.35;52.47;99762.81;10431995;27;96533;-85
2022/08/06 02:14:28;;;;;;;2.78;2.20;;;22.50;63.90;;;21.29;52.24;99767.34;10396759;27;98465;-88
2022/08/06 02:19:33;;;;;;;3.10;2.72;;;22.40;64.10;;;21.26;52.26;99772.38;10403999;27;97459;-84
2022/08/06 02:25:10;;;;;;;4.57;2.65;;;22.40;64.10;;;21.25;52.79;99773.47;10418821;27;96535;-89
2022/08/06 02:30:27;;;;;;;3.58;2.42;;;22.40;64.30;;;21.25;53.19;99781.56;10430915;27;96592;-87
2022/08/06 02:36:02;;;;;;;4.30;2.53;;;22.40;64.40;;;21.17;53.53;99774.72;10399058;27;96696;-88
2022/08/06 02:41:30;;;;;;;3.35;2.08;;;22.30;64.70;;;21.11;53.08;99781.06;10406522;27;96652;-88
2022/08/06 02:47:00;;;;;;;2.83;2.15;;;22.20;64.80;;;21.03;53.30;99778.78;10430415;27;96586;-88
2022/08/06 02:52:17;;;;;;;3.63;2.63;;;22.20;65.00;;;20.98;53.37;99776.81;10440006;27;96662;-88
2022/08/06 02:57:50;;;;;;;6.25;2.72;;;22.10;65.20;;;20.93;53.61;99771.38;10409633;27;96531;-88
2022/08/06 03:03:00;;;;;;;4.95;2.40;;;22.10;65.30;;;20.88;53.79;99782.09;10414093;27;98583;-88
2022/08/06 03:08:06;;;;;;;5.07;2.63;;;22.00;65.40;;;20.81;54.21;99778.69;10426206;27;98061;-88
2022/08/06 03:13:14;;;;;;;3.07;2.60;;;21.90;65.70;;;20.75;54.04;99779.69;10404691;27;97290;-88
2022/08/06 03:18:18;;;;;;;3.55;2.45;;;21.90;65.90;;;20.71;54.28;99775.84;10417388;27;96677;-88
2022/08/06 03:23:25;;;;;;;3.67;2.50;;;21.80;66.10;;;20.64;54.97;99780.59;10460713;27;96599;-89
2022/08/06 03:28:32;;;;;;;4.38;2.80;;;21.80;66.40;;;20.61;55.06;99792.69;10421945;27;96694;-88
2022/08/06 03:33:36;;;;;;;7.20;3.35;;;21.70;66.60;;;20.59;55.27;99789.41;10428761;27;96665;-85
2022/08/06 03:39:04;;;;;;;10.90;9.07;;;21.70;66.80;;;20.56;55.51;99782.59;10436821;27;96727;-86
2022/08/06 03:44:08;;;;;;;11.52;4.82;;;21.70;67.00;;;20.55;55.94;99780.97;10433350;27;96703;-86
2022/08/06 03:49:40;;;;;;;6.47;4.20;;;21.70;67.30;;;20.54;56.38;99784.75;10451537;27;97561;-85
2022/08/06 03:54:49;;;;;;;5.93;3.67;;;21.70;67.60;;;20.55;56.38;99783.69;10421873;27;96634;-86
2022/08/06 04:00:00;;;;;;;3.93;3.17;;;21.70;67.80;;;20.54;56.12;99787.44;10430787;27;96620;-86
2022/08/06 04:05:06;;;;;;;5.00;3.53;;;21.70;67.90;;;20.54;56.45;99782.03;10440841;27;96604;-83
2022/08/06 04:10:10;;;;;;;4.60;3.40;;;21.70;68.10;;;20.58;56.60;99791.31;10457357;27;96608;-83
2022/08/06 04:15:14;;;;;;;5.03;2.67;;;21.70;68.20;;;20.64;56.31;99807.59;10438573;27;97065;-85
2022/08/06 04:20:21;;;;;;;6.70;3.15;;;21.70;68.00;;;20.73;56.22;99806.13;10449534;27;96797;-84
2022/08/06 04:25:54;;;;;;;3.42;3.13;;;21.80;67.80;;;20.82;55.33;99812.78;10454492;27;98571;-84
2022/08/06 04:30:59;;;;;;;3.58;2.65;;;21.90;67.50;;;20.91;55.21;99810.47;10425448;27;98089;-83
2022/08/06 04:36:06;;;;;;;3.88;2.50;;;22.00;67.40;;;21.05;55.60;99807.22;10455302;27;96527;-82
2022/08/06 04:41:26;;;;;;;4.03;2.50;;;22.10;67.50;;;21.25;55.61;99808.59;10459596;27;96572;-82
2022/08/06 04:46:34;;;;;;;3.15;2.85;;;22.30;67.50;;;21.44;55.94;99812.69;10411773;27;98321;-82
2022/08/06 04:51:38;;;;;;;3.85;3.03;;;22.50;67.90;;;21.67;56.31;99821.66;10423695;27;96671;-82
2022/08/06 04:57:01;;;;;;;3.17;2.83;;;22.70;68.60;;;21.87;55.61;99822.72;10435900;27;96598;-81
2022/08/06 05:02:24;;;;;;;3.10;2.70;;;23.00;68.30;;;22.07;55.37;99819.47;10426707;27;96717;-82
2022/08/06 05:07:33;;;;;;;2.70;2.50;;;23.10;68.00;;;22.24;54.80;99818.59;10414161;27;96680;-85
2022/08/06 05:12:56;;;;;;;2.95;2.45;;;23.30;67.20;;;22.43;54.03;99826.13;10405874;27;96704;-83
2022/08/06 05:18:07;;;;;;;4.97;3.03;;;23.50;66.70;;;22.62;53.91;99823.06;10415844;27;97307;-83
2022/08/06 05:23:29;;;;;;;5.43;2.67;;;23.70;66.50;;;22.83;53.44;99824.06;10424734;27;96555;-83
2022/08/06 05:28:33;;;;;;;5.03;2.85;;;23.90;66.10;;;23.02;53.12;99814.50;10410941;27;96706;-83
2022/08/06 05:33:39;;;;;;;4.13;2.85;;;24.10;65.80;;;23.20;52.62;99824.94;10403579;27;98375;-82
2022/08/06 05:38:44;;;;;;;6.43;3.00;;;24.30;65.40;;;23.41;52.62;99827.81;10410057;27;98287;-85
2022/08/06 05:44:02;;;;;;;3.13;2.83;;;24.40;65.60;;;23.74;51.82;99838.31;10437636;27;96677;-86
2022/08/06 05:49:14;;;;;;;5.10;2.67;;;24.70;65.60;;;24.00;51.50;99833.84;10443761;27;96569;-86
2022/08/06 05:54:50;;;;;;;7.75;2.90;;;24.90;64.80;;;24.24;51.51;99834.22;10435269;27;96546;-86
2022/08/06 06:00:00;;;;;;;4.18;2.88;;;25.20;64.90;;;24.48;51.27;99831.06;10442584;27;96509;-86
2022/08/06 06:05:08;;;;;;;2.38;1.95;;;25.50;64.80;;;24.66;50.34;99830.53;10443519;27;98327;-87
2022/08/06 06:10:33;;;;;;;4.68;2.55;;;25.70;63.30;;;25.02;46.67;99816.97;10410056;27;96700;-88
2022/08/06 06:15:45;;;;;;;4.47;2.58;;;26.00;60.60;;;25.41;45.61;99827.28;10440364;27;96814;-86
2022/08/06 06:21:55;;;;;;;5.25;2.33;;;26.30;59.90;;;25.80;44.60;99832.97;10431044;27;97459;-86
2022/08/06 06:27:17;;;;;;;5.47;2.63;;;26.70;58.60;;;26.15;45.83;99834.72;10390963;27;96968;-86
2022/08/06 06:32:48;;;;;;;3.38;2.60;;;27.10;59.80;;;26.46;46.02;99835.41;10441209;27;97828;-87
2022/08/06 06:38:36;;;;;;;3.25;2.80;;;27.40;60.10;;;26.75;45.23;99843.66;10427493;27;97380;-86
2022/08/06 06:44:24;;;;;;;5.88;3.05;;;27.70;59.50;;;26.97;43.99;99851.38;10437560;27;96679;-87
2022/08/06 06:50:01;;;;;;;3.53;3.00;;;27.90;58.30;;;27.05;43.59;99847.22;10437730;27;96713;-87
2022/08/06 06:55:39;;;;;;;6.50;3.28;;;28.00;58.20;;;27.17;43.20;99845.81;10418091;27;97149;-86
2022/08/06 07:01:01;;;;;;;3.72;2.50;;;28.10;57.90;;;27.38;42.80;99846.44;10422039;27;96645;-87
2022/08/06 07:06:26;;;;;;;5.28;2.55;;;28.30;57.50;;;27.65;41.97;99845.06;10426361;27;98154;-87
2022/08/06 07:11:47;;;;;;;4.70;2.70;;;28.60;57.00;;;27.92;41.55;99850.81;10409444;27;98296;-87
2022/08/06 07:17:07;;;;;;;3.00;2.30;;;28.90;56.40;;;28.21;41.65;99852.63;10414886;27;97421;-86
2022/08/06 07:22:30;;;;;;;4.72;2.55;;;29.20;56.70;;;28.47;40.69;99834.00;10443175;27;96870;-86
2022/08/06 07:27:44;;;;;;;15.13;4.38;;;29.50;55.60;;;28.70;39.75;99844.03;10411488;27;97262;-86
2022/08/06 07:32:57;;;;;;;2.60;2.20;;;29.70;54.80;;;28.97;38.37;99846.13;10411888;27;98163;-86
2022/08/06 07:38:04;;;;;;;4.90;2.67;;;30.00;54.10;;;29.21;38.36;99853.38;10417441;27;96730;-86
2022/08/06 07:43:12;;;;;;;4.88;2.50;;;30.20;53.90;;;29.45;38.01;99851.31;10409741;27;96629;-85
2022/08/06 07:48:55;;;;;;;4.47;2.70;;;30.40;53.40;;;29.71;37.21;99848.94;10435404;27;97338;-85
2022/08/06 07:53:58;;;;;;;3.85;2.30;;;30.70;53.00;;;29.90;36.21;99842.56;10437032;27;96589;-86
2022/08/06 07:59:09;;;;;;;7.00;2.50;;;30.90;51.60;;;30.04;34.99;99835.94;10437719;27;96588;-86
2022/08/06 08:09:57;;;;;;;3.57;2.30;;;31.30;50.70;;;30.46;34.39;99844.94;10444737;27;98477;-86
2022/08/06 08:15:06;;;;;;;2.50;2.00;;;31.50;49.90;;;30.66;33.02;99851.91;10444302;27;96526;-86
2022/08/06 08:20:30;;;;;;;7.63;2.60;;;31.70;49.10;;;30.89;32.12;99847.28;10441040;27;96885;-87
2022/08/06 08:25:37;;;;;;;5.72;2.38;;;31.90;48.10;;;31.05;31.95;99845.75;10431216;27;97278;-86
2022/08/06 08:30:45;;;;;;;6.07;2.20;;;32.10;47.70;;;31.18;31.46;99847.63;10429433;27;97472;-85
2022/08/06 08:35:52;;;;;;;5.30;2.15;;;32.20;47.40;;;31.30;30.77;99846.25;10446718;27;96846;-86
2022/08/06 08:41:22;;;;;;;3.47;2.10;;;32.30;46.70;;;31.42;31.00;99849.22;10434044;27;99185;-86
2022/08/06 08:46:45;;;;;;;4.72;2.20;;;32.40;47.00;;;31.62;30.56;99850.66;10464049;27;97483;-86
2022/08/06 08:52:03;;;;;;;3.75;2.22;;;32.50;46.60;;;31.67;30.50;99856.81;10466578;27;97530;-86
2022/08/06 08:57:15;;;;;;;4.72;2.20;;;32.60;46.70;;;31.79;30.67;99858.13;10457461;27;97475;-86
2022/08/06 09:02:39;;;;;;;3.08;2.20;;;32.70;46.70;;;31.95;30.41;99851.09;10469038;27;96588;-87
2022/08/06 09:07:52;;;;;;;4.30;2.10;;;32.90;46.30;;;32.08;30.31;99849.34;10461718;27;96656;-86
2022/08/06 09:13:04;;;;;;;5.45;2.35;;;33.10;46.30;;;32.30;30.48;99851.19;10481741;27;97085;-86
2022/08/06 09:18:26;;;;;;;4.75;2.20;;;33.30;46.40;;;32.49;29.75;99847.03;10439739;27;96817;-86
2022/08/06 09:23:31;;;;;;;3.83;2.33;;;33.40;46.00;;;32.60;29.27;99839.28;10459513;27;98675;-86
2022/08/06 09:28:55;;;;;;;2.90;2.60;;;33.50;45.60;;;32.67;29.12;99836.03;10445432;27;96757;-86
2022/08/06 09:34:03;;;;;;;5.05;2.65;;;33.50;45.40;;;32.82;29.92;99832.81;10472086;27;96731;-86
2022/08/06 09:39:41;;;;;;;5.83;2.50;;;33.70;45.90;;;33.06;29.01;99824.06;10467698;27;97362;-86
2022/08/06 09:45:12;;;;;;;5.97;1.90;;;34.00;45.60;;;33.24;28.37;99833.91;10450680;27;97962;-86
2022/08/06 09:50:36;;;;;;;3.28;1.90;;;34.20;44.90;;;33.42;28.30;99831.13;10448709;27;98572;-86
2022/08/06 09:55:39;;;;;;;3.42;1.98;;;34.40;44.90;;;33.59;28.21;99833.81;10449998;27;96562;-86
2022/08/06 10:00:43;;;;;;;3.03;2.22;;;34.70;44.50;;;33.73;27.63;99831.63;10452144;27;96688;-86
2022/08/06 10:06:25;;;;;;;4.78;2.33;;;34.80;44.00;;;33.86;27.34;99829.78;10459531;27;96735;-86
2022/08/06 10:11:41;;;;;;;8.20;2.45;;;35.00;43.80;;;33.95;26.75;99830.59;10419345;27;98496;-84
2022/08/06 10:17:18;;;;;;;3.95;2.05;;;35.10;43.40;;;34.11;26.98;99828.06;10488493;27;98277;-84
2022/08/06 10:22:21;;;;;;;2.65;1.98;;;35.20;43.40;;;34.30;27.42;99817.38;10478914;27;97395;-84
2022/08/06 10:27:36;;;;;;;2.58;2.38;;;35.40;43.90;;;34.43;26.87;99821.06;10496870;27;96571;-84
2022/08/06 10:32:51;;;;;;;3.88;2.40;;;35.50;43.60;;;34.60;27.09;99814.56;10481652;27;96714;-83
2022/08/06 10:38:03;;;;;;;4.82;2.38;;;35.60;43.30;;;34.66;26.72;99829.78;10493779;27;96601;-84
2022/08/06 10:43:17;;;;;;;2.95;2.38;;;35.70;43.20;;;34.87;27.22;99827.81;10431477;27;96680;-84
2022/08/06 10:48:23;;;;;;;4.82;2.20;;;35.90;43.70;;;35.11;26.93;99820.78;10422323;27;96952;-84
2022/08/06 10:53:46;;;;;;;2.75;2.50;;;36.10;43.90;;;35.25;26.69;99824.03;10453001;27;96784;-85
2022/08/06 10:59:13;;;;;;;2.70;2.17;;;36.30;43.40;;;35.50;26.84;99829.63;10422078;27;96828;-85
2022/08/06 11:04:33;;;;;;;5.60;2.65;;;36.50;43.20;;;35.68;25.73;99819.97;10405909;27;97378;-85
2022/08/06 11:09:52;;;;;;;2.67;2.22;;;36.70;42.90;;;35.89;25.60;99804.06;10431973;27;96639;-84
2022/08/06 11:15:06;;;;;;;3.33;2.40;;;36.90;42.50;;;36.03;25.28;99800.16;10441131;27;96611;-84
2022/08/06 11:20:32;;;;;;;2.65;2.40;;;37.10;42.00;;;36.17;25.25;99793.13;10442834;27;96639;-84
2022/08/06 11:25:50;;;;;;;3.40;2.75;;;37.20;42.10;;;36.30;24.66;99793.09;10444626;27;98666;-84
2022/08/06 11:30:56;;;;;;;3.38;2.40;;;37.20;41.70;;;36.36;24.78;99786.16;10405725;27;97531;-83
2022/08/06 11:36:12;;;;;;;2.80;2.30;;;37.30;41.50;;;36.37;25.05;99791.34;10428208;27;96940;-83
2022/08/06 11:41:42;;;;;;;2.60;2.20;;;37.30;42.10;;;36.49;24.45;99784.19;10432045;27;96663;-84
2022/08/06 11:47:10;;;;;;;5.35;2.47;;;37.40;41.80;;;36.62;24.97;99778.22;10422791;27;96593;-84
2022/08/06 11:52:37;;;;;;;2.53;2.33;;;37.50;42.20;;;36.78;25.06;99778.28;10398412;27;97244;-84
2022/08/06 11:57:43;;;;;;;3.92;2.30;;;37.70;42.10;;;37.10;24.70;99772.81;10462047;27;96690;-83
2022/08/06 12:02:54;;;;;;;6.68;3.42;;;37.90;41.70;;;37.23;26.39;99769.59;10422191;27;96653;-84
2022/08/06 12:08:20;;;;;;;4.05;3.40;;;38.10;43.30;;;37.12;26.57;99771.28;10401208;27;96796;-83
2022/08/06 12:13:43;;;;;;;5.03;4.35;;;38.00;43.90;;;36.64;27.93;99780.63;10428364;27;96523;-82
2022/08/06 12:19:03;;;;;;;7.63;4.57;;;37.60;44.90;;;35.92;28.86;99780.47;10422597;27;96769;-83
2022/08/06 12:24:08;;;;;;;8.97;4.77;;;36.90;45.80;;;35.18;30.22;99790.66;10418747;27;96777;-83
2022/08/06 12:29:11;;;;;;;6.72;5.25;;;36.00;46.90;;;35.02;31.83;99776.69;10418300;27;96805;-84
2022/08/06 12:34:25;;;;;;;8.75;4.93;;;35.80;48.10;;;35.43;30.93;99780.47;10435885;27;98114;-82
2022/08/06 12:45:02;;;;;;;6.18;4.88;;;36.70;46.60;;;36.21;30.12;99793.22;10412575;27;98414;-83
2022/08/06 12:50:19;;;;;;;5.40;4.90;;;37.10;46.80;;;36.41;29.46;99797.81;10413989;27;97336;-82
2022/08/06 12:55:54;;;;;;;6.23;5.63;;;37.40;46.50;;;36.64;28.87;99788.94;10437645;27;98229;-82
2022/08/06 13:01:02;;;;;;;6.05;4.97;;;37.50;46.10;;;36.75;29.02;99801.13;10441917;27;96805;-82
2022/08/06 13:06:09;;;;;;;5.97;5.38;;;37.50;46.20;;;36.88;29.09;99799.13;10440728;27;96569;-81
2022/08/06 13:11:34;;;;;;;8.23;5.53;;;37.60;46.00;;;36.82;28.38;99794.97;10424572;27;96901;-81
2022/08/06 13:16:42;;;;;;;6.13;5.17;;;37.40;45.90;;;36.81;28.75;99796.94;10430085;27;96632;-81
2022/08/06 13:21:59;;;;;;;5.47;4.97;;;37.40;45.80;;;36.73;28.71;99792.38;10420818;27;96744;-81
2022/08/06 13:27:03;;;;;;;7.30;5.18;;;37.20;45.80;;;36.88;28.73;99783.31;10428273;27;96643;-80
2022/08/06 13:32:11;;;;;;;5.30;4.80;;;37.30;46.00;;;37.23;28.13;99799.28;10429303;27;96729;-82
2022/08/06 13:37:51;;;;;;;9.20;5.22;;;37.70;45.70;;;37.14;27.74;99812.50;10417324;27;97381;-82
2022/08/06 13:43:03;;;;;;;6.95;5.13;;;37.70;45.40;;;36.87;28.14;99806.63;10385451;27;96551;-82
2022/08/06 13:48:10;;;;;;;5.97;5.30;;;37.50;45.50;;;36.45;28.34;99808.97;10411171;27;96971;-84
2022/08/06 13:53:25;;;;;;;6.65;5.25;;;37.20;45.70;;;36.09;29.33;99812.59;10402255;27;96565;-85
2022/08/06 13:58:47;;;;;;;7.25;5.22;;;36.70;46.20;;;35.67;29.54;99821.13;10423177;27;96531;-85
2022/08/06 14:03:50;;;;;;;5.35;4.85;;;36.40;46.50;;;35.15;30.89;99818.97;10417392;27;96857;-85
2022/08/06 14:08:53;;;;;;;5.30;4.80;;;35.90;47.20;;;34.79;31.67;99819.63;10406782;27;96689;-85
2022/08/06 14:13:58;;;;;;;5.00;4.40;;;35.50;47.90;;;34.71;32.04;99815.78;10421365;27;96809;-84
2022/08/06 14:19:02;;;;;;;6.15;4.50;;;35.40;48.60;;;34.79;32.27;99811.34;10409255;27;96956;-84
2022/08/06 14:24:25;;;;;;;4.55;3.90;;;35.40;48.80;;;35.01;32.42;99813.72;10419505;27;97313;-85
2022/08/06 14:29:28;;;;;;;4.75;4.28;;;35.60;48.80;;;35.12;31.50;99817.66;10457408;27;96442;-84
2022/08/06 14:34:55;;;;;;;5.30;3.95;;;35.80;48.30;;;34.53;32.18;99826.16;10426196;27;96571;-85
2022/08/06 14:39:58;;;;;;;3.53;3.20;;;35.30;48.30;;;33.92;32.99;99838.72;10418704;27;96701;-85
2022/08/06 14:45:05;;;;;;;3.58;3.10;;;34.70;49.40;;;33.31;34.50;99858.19;10384499;27;96602;-85
2022/08/06 14:50:09;;;;;;;4.25;2.72;;;34.10;50.50;;;32.81;35.76;99871.63;10424337;27;96899;-86
2022/08/06 14:55:13;;;;;;;3.55;2.65;;;33.60;51.40;;;32.46;36.12;99882.63;10434280;27;96955;-86
2022/08/06 15:00:24;;;;;;;3.08;2.75;;;33.20;52.10;;;32.11;36.81;99899.00;10391624;27;96910;-85
2022/08/06 15:05:38;;;;;;;6.78;2.60;;;32.90;52.70;;;31.81;37.67;99905.38;10417651;27;98525;-85
2022/08/06 15:11:03;;;;;;;2.83;2.25;;;32.60;53.20;;;31.68;37.93;99910.63;10429638;27;96819;-84
2022/08/06 15:16:20;;;;;;;6.63;2.60;;;32.50;53.70;;;31.68;38.41;99927.09;10438419;27;97394;-85
2022/08/06 15:21:43;;;;;;;3.33;2.58;;;32.40;54.00;;;31.79;38.31;99929.53;10411926;27;97362;-84
2022/08/06 15:26:57;;;;;;;2.90;2.60;;;32.50;53.80;;;31.81;38.14;99935.59;10419886;28;96588;-84
2022/08/06 15:31:59;;;;;;;5.15;2.35;;;32.50;53.60;;;31.91;38.22;99932.56;10388523;27;96962;-84
2022/08/06 15:37:20;;;;;;;4.30;2.50;;;32.60;53.70;;;31.90;37.87;99947.41;10438431;27;96425;-85
2022/08/06 15:42:43;;;;;;;2.75;2.45;;;32.60;53.60;;;31.74;38.27;99946.19;10429634;27;96532;-84
2022/08/06 15:47:46;;;;;;;4.18;2.42;;;32.50;53.80;;;31.51;38.57;99962.69;10402297;27;96565;-85
2022/08/06 15:52:52;;;;;;;5.57;2.60;;;32.20;54.00;;;31.15;38.92;99955.28;10426640;27;96580;-84
2022/08/06 15:57:55;;;;;;;2.90;2.42;;;31.90;54.40;;;30.82;39.90;99942.88;10402775;28;96474;-87
2022/08/06 16:03:11;;;;;;;4.07;2.70;;;31.60;54.90;;;30.46;40.32;99946.38;10420355;27;96569;-84
2022/08/06 16:08:15;;;;;;;2.88;2.53;;;31.20;55.40;;;30.37;40.92;99945.47;10409136;27;96668;-84
2022/08/06 16:13:38;;;;;;;2.80;2.60;;;31.10;56.00;;;30.51;40.74;99951.75;10415543;27;96761;-84
2022/08/06 16:18:42;;;;;;;4.15;2.88;;;31.20;55.90;;;30.57;40.46;99960.69;10421815;27;96853;-85
2022/08/06 16:23:54;;;;;;;2.75;2.55;;;31.20;55.90;;;30.64;40.51;99961.88;10409962;27;96700;-83
2022/08/06 16:29:05;;;;;;;3.72;2.22;;;31.20;55.90;;;30.69;40.22;99965.66;10442242;27;96685;-85
2022/08/06 16:34:08;;;;;;;2.45;2.25;;;31.40;55.80;;;30.64;40.31;99961.88;10422815;27;98331;-84
2022/08/06 16:39:14;;;;;;;2.70;2.33;;;31.30;55.70;;;30.53;40.52;99960.50;10453111;27;96613;-86
2022/08/06 16:44:37;;;;;;;2.88;2.08;;;31.20;55.90;;;30.42;40.76;99969.25;10437982;27;96947;-84
2022/08/06 16:50:00;;;;;;;3.65;1.88;;;31.20;55.90;;;30.24;40.86;99981.94;10432863;27;96758;-85
2022/08/06 16:55:23;;;;;;;4.22;2.05;;;31.00;56.10;;;29.96;41.12;99978.31;10429677;27;96726;-87
2022/08/06 17:00:26;;;;;;;4.47;1.95;;;30.80;56.30;;;29.57;42.39;99988.56;10440404;27;97307;-88
2022/08/06 17:05:49;;;;;;;3.95;2.20;;;30.40;56.90;;;29.14;42.65;99989.75;10458967;27;96548;-85
2022/08/06 17:10:55;;;;;;;3.28;1.92;;;29.90;57.50;;;28.77;44.06;99997.59;10444152;27;97048;-85
2022/08/06 17:16:01;;;;;;;3.75;1.90;;;29.60;58.30;;;28.45;44.46;100006.47;10445687;27;96470;-88
2022/08/06 17:21:04;;;;;;;2.30;2.10;;;29.30;59.00;;;28.18;45.38;100008.94;10457042;27;96507;-88
2022/08/06 17:26:09;;;;;;;3.17;1.70;;;29.00;59.60;;;27.94;45.38;100026.09;10419561;27;96788;-88
2022/08/06 17:31:32;;;;;;;3.08;2.10;;;28.80;59.90;;;27.70;46.32;100033.41;10422306;27;96602;-87
2022/08/06 17:36:55;;;;;;;2.65;2.03;;;28.50;60.30;;;27.43;46.76;100034.66;10419540;27;96713;-88
2022/08/06 17:41:59;;;;;;;3.20;1.70;;;28.20;60.90;;;27.21;46.93;100032.34;10443677;27;97665;-82
2022/08/06 17:47:13;;;;;;;2.78;1.63;;;28.00;61.10;;;27.04;47.69;100037.31;10393656;27;97026;-81
2022/08/06 17:52:16;;;;;;;2.30;1.77;;;27.90;61.50;;;26.88;47.81;100046.69;10421149;27;96892;-82
2022/08/06 17:57:31;;;;;;;2.53;2.00;;;27.70;62.00;;;26.74;48.17;100048.34;10419021;27;98517;-82
2022/08/06 18:02:54;;;;;;;5.75;1.75;;;27.60;62.40;;;26.59;48.70;100049.25;10437818;27;97528;-82
2022/08/06 18:07:59;;;;;;;1.98;1.70;;;27.40;62.70;;;26.47;48.89;100048.72;10415119;27;96558;-83
2022/08/06 18:13:21;;;;;;;3.78;1.85;;;27.30;62.90;;;26.33;49.27;100052.00;10409621;27;96512;-82
2022/08/06 18:18:45;;;;;;;4.70;2.00;;;27.20;63.40;;;26.20;49.56;100046.28;10416349;27;96622;-83
2022/08/06 18:23:50;;;;;;;2.20;1.83;;;27.10;63.70;;;26.07;50.11;100058.56;10381282;28;96596;-83
2022/08/06 18:28:57;;;;;;;2.08;1.77;;;26.90;64.00;;;25.95;50.56;100063.47;10410510;27;96800;-82
2022/08/06 18:34:01;;;;;;;4.57;1.90;;;26.80;64.10;;;25.84;50.63;100077.06;10424483;27;96637;-82
2022/08/06 18:39:06;;;;;;;2.83;1.60;;;26.70;64.40;;;25.68;50.75;100075.41;10458812;27;98564;-82
2022/08/06 18:44:16;;;;;;;1.70;1.45;;;26.50;64.60;;;25.53;51.11;100092.53;10441608;27;96567;-82
2022/08/06 18:49:20;;;;;;;1.77;1.55;;;26.40;64.90;;;25.40;51.52;100092.22;10434679;27;97328;-83
2022/08/06 18:54:43;;;;;;;1.77;1.27;;;26.30;65.20;;;25.27;51.75;100112.59;10432361;27;96529;-81
2022/08/06 18:59:59;;;;;;;1.42;1.20;;;26.10;65.40;;;25.14;51.87;100113.09;10435429;27;97027;-82
2022/08/06 19:05:06;;;;;;;1.67;1.40;;;26.00;65.50;;;24.99;51.89;100111.06;10409376;27;97014;-81
2022/08/06 19:10:12;;;;;;;1.90;1.50;;;25.90;65.70;;;24.85;52.29;100118.91;10443486;27;96494;-82
2022/08/06 19:15:18;;;;;;;1.85;1.15;;;25.70;65.80;;;24.71;52.37;100117.72;10430598;27;96823;-83
2022/08/06 19:20:42;;;;;;;1.75;1.50;;;25.60;66.00;;;24.57;52.90;100122.81;10403483;27;98140;-83
2022/08/06 19:25:46;;;;;;;2.50;1.83;;;25.50;66.30;;;24.49;53.07;100126.84;10399023;27;97196;-81
2022/08/06 19:31:09;;;;;;;2.50;1.90;;;25.40;66.60;;;24.39;53.18;100123.22;10423948;27;98601;-81
2022/08/06 19:36:13;;;;;;;1.77;1.60;;;25.30;66.70;;;24.29;53.29;100124.78;10420915;27;96928;-81
2022/08/06 19:41:29;;;;;;;1.50;1.40;;;25.20;67.40;;;24.18;53.57;100131.19;10449044;27;96681;-81
2022/08/06 19:46:52;;;;;;;2.35;1.55;;;25.00;67.00;;;24.04;53.76;100138.13;10441228;27;96764;-82
2022/08/06 19:51:59;;;;;;;2.22;1.90;;;25.00;67.10;;;23.98;53.68;100131.00;10433828;27;96615;-80
2022/08/06 19:57:06;;;;;;;3.42;1.92;;;24.90;67.00;;;24.01;53.53;100136.75;10430330;27;96868;-80
2022/08/06 20:02:11;;;;;;;5.97;1.80;;;24.90;66.90;;;24.04;53.46;100147.06;10449007;27;97418;-80
2022/08/06 20:07:18;;;;;;;3.08;1.90;;;25.00;66.60;;;24.06;52.99;100157.69;10434519;27;96601;-80
2022/08/06 20:12:33;;;;;;;2.30;1.90;;;25.00;66.30;;;24.05;52.96;100156.06;10455545;27;98449;-82
2022/08/06 20:17:38;;;;;;;2.03;1.63;;;25.00;66.20;;;24.01;52.90;100155.75;10401932;27;96942;-81
2022/08/06 20:22:52;;;;;;;1.88;1.63;;;24.90;66.20;;;23.93;53.00;100155.38;10428803;27;96718;-82
2022/08/06 20:27:59;;;;;;;1.83;1.70;;;24.80;66.20;;;23.81;53.29;100165.56;10424333;27;96874;-83
2022/08/06 20:33:25;;;;;;;1.50;1.40;;;24.80;66.50;;;23.66;53.52;100164.34;10425771;27;96574;-82
2022/08/06 20:38:30;;;;;;;4.15;1.77;;;24.60;66.90;;;23.51;53.88;100180.44;10419847;27;96893;-81
2022/08/06 20:43:45;;;;;;;2.05;1.80;;;24.50;67.10;;;23.40;54.21;100178.66;10419998;27;96691;-82
2022/08/06 20:49:08;;;;;;;2.72;1.90;;;24.40;67.30;;;23.32;54.23;100179.09;10446935;27;96725;-81
2022/08/06 20:54:15;;;;;;;1.83;1.63;;;24.30;67.40;;;23.20;54.68;100181.94;10418965;27;96606;-82
2022/08/06 20:59:20;;;;;;;2.42;1.80;;;24.20;67.80;;;23.04;54.90;100186.34;10456639;27;96599;-81
2022/08/06 21:04:22;;;;;;;2.63;1.65;;;24.00;68.20;;;23.00;55.24;100190.63;10455344;27;96460;-81
2022/08/06 21:09:45;;;;;;;4.55;2.10;;;24.00;68.40;;;22.92;55.42;100183.75;10448778;27;96645;-81
2022/08/06 21:14:50;;;;;;;2.33;1.65;;;23.90;68.40;;;22.90;55.62;100195.88;10440298;27;98284;-81
2022/08/06 21:19:54;;;;;;;2.15;1.70;;;23.90;68.60;;;22.89;55.71;100196.94;10420999;27;98376;-80
2022/08/06 21:25:16;;;;;;;2.08;1.75;;;23.90;68.50;;;22.86;55.53;100192.03;10418489;27;96990;-81
2022/08/06 21:30:24;;;;;;;2.92;2.08;;;23.80;68.60;;;22.81;55.64;100192.75;10436344;27;96758;-81
2022/08/06 21:35:32;;;;;;;2.35;1.80;;;23.80;68.80;;;22.82;55.75;100188.97;10418682;27;96730;-81
2022/08/06 21:40:37;;;;;;;2.50;1.88;;;23.80;68.70;;;22.79;55.70;100185.94;10401006;27;96522;-80
2022/08/06 21:45:41;;;;;;;2.97;1.50;;;23.80;68.80;;;22.78;55.88;100193.22;10413174;27;97327;-81
2022/08/06 21:51:05;;;;;;;2.10;1.83;;;23.80;68.90;;;22.73;56.23;100187.78;10416933;27;96594;-81
2022/08/06 21:56:12;;;;;;;2.20;2.00;;;23.80;69.10;;;22.67;55.99;100208.53;10440908;27;97252;-81